Open Full Screen Window  High Contrast Mode
Wind Gusting 00 knots
05
April 02, 2015 3:44 AM EDT
Weather Information
Wind Direction
  170 °
Wind Speed
  05 kt (6 mph)
Wind Gust
  00 kt (0 mph)
Altimeter
30.01 in
Visibility
10 SM
Temperature
08° C
46° F
Dewpoint
-04° C
25° F
Humidity
43%
1hr Rain Fall
00.00 in.
24hr Rain Fall
00.01 in.
Sky Condition
Clear
VFR

METAR KPOV 020744Z AUTO 17005KT 10SM CLR 08/M04 A3001 RMK AO2 T00811045

*Background is not an actual portrayal of the airport.